Latest Weather Observations for Port Lincoln Airport

IDS60801

Issued at 2:31 pm CST Monday 23 September 2019 (issued every 10 minutes, with the page automatically refreshed every 10 minutes)

About weather observations | Map of weather stations | Latest weather observations for SA | Other Formats
Station Details ID: 018192 Name: PORT LINCOLN AWS Lat: -34.60 Lon: 135.88 Height: 8.5 m
Data from the previous 72 hours. | See also: Recent months at Port Lincoln Airport
Date/Time
CST
Temp
°C
App
Temp
°C
Dew
Point
°C
Rel
Hum
%
Delta-T
°C
Wind Press
QNH
hPa
Press
MSL
hPa
Rain since
9am
mm
Dir  Spd
km/h
Gust
km/h
Spd
kts
Gust
kts
23/02:30pm 15.1 11.5 5.0 51 4.7 SW 13 22 7 12 1030.4 1030.4 0.0
23/02:00pm 14.4 10.2 5.5 55 4.2 W 17 24 9 13 1030.7 1030.7 0.0
23/01:30pm 14.4 9.7 5.0 53 4.4 SW 19 28 10 15 1030.7 1030.7 0.0
23/01:00pm 14.6 9.3 5.1 53 4.5 WSW 22 30 12 16 1030.7 1030.7 0.0
23/12:30pm 14.4 9.6 4.4 51 4.6 W 19 26 10 14 1031.0 1031.0 0.0
23/12:00pm 14.6 9.7 4.3 50 4.7 WSW 19 26 10 14 1031.0 1031.0 0.0
23/11:30am 14.1 9.5 5.5 56 4.0 WSW 19 26 10 14 1031.3 1031.3 0.0
23/11:00am 13.6 8.9 6.0 60 3.6 W 20 28 11 15 1031.3 1031.3 0.0
23/10:30am 13.8 9.2 5.7 58 3.8 SW 19 24 10 13 1031.2 1031.2 0.0
23/10:00am 14.0 9.2 4.6 53 4.3 WSW 19 24 10 13 1031.3 1031.3 0.0
23/09:30am 13.4 9.6 5.8 60 3.6 W 15 22 8 12 1031.2 1031.2 0.0
23/09:00am 12.5 9.2 6.3 66 2.9 SW 13 19 7 10 1031.1 1031.1 5.4
23/08:30am 12.4 9.7 7.5 72 2.4 WSW 11 15 6 8 1031.0 1031.0 5.4
23/08:00am 11.8 9.0 6.9 72 2.3 SW 11 15 6 8 1030.7 1030.7 5.4
23/07:30am 10.1 6.9 7.0 81 1.5 WSW 13 15 7 8 1030.6 1030.6 5.4
23/07:00am 8.7 5.4 6.5 86 1.0 WNW 13 17 7 9 1030.4 1030.4 5.4
23/06:30am 7.3 4.3 5.9 91 0.6 W 11 15 6 8 1030.1 1030.1 5.4
23/06:00am 7.6 4.2 5.9 89 0.8 W 13 15 7 8 1029.8 1029.8 5.4
23/05:30am 8.1 5.3 6.9 92 0.6 W 11 13 6 7 1029.5 1029.5 5.4
23/05:00am 6.9 3.7 5.2 89 0.7 WNW 11 15 6 8 1029.2 1029.2 5.4
23/04:30am 7.6 3.8 5.9 89 0.8 WNW 15 19 8 10 1029.0 1029.0 5.4
23/04:00am 6.6 3.5 5.4 92 0.5 WNW 11 15 6 8 1028.8 1028.8 5.4
23/03:30am 5.5 1.8 4.2 91 0.5 WNW 13 15 7 8 1028.7 1028.7 5.4
23/03:00am 6.7 3.2 5.3 91 0.6 WNW 13 17 7 9 1028.7 1028.7 5.4
23/02:30am 6.5 3.3 5.1 91 0.6 W 11 15 6 8 1028.6 1028.6 5.4
23/02:00am 6.5 3.3 5.0 90 0.7 WNW 11 13 6 7 1028.6 1028.6 5.4
23/01:30am 6.7 3.0 4.4 85 1.0 W 13 15 7 8 1028.7 1028.7 5.4
23/01:00am 7.4 3.4 4.9 84 1.1 WSW 15 20 8 11 1028.4 1028.4 5.4
23/12:30am 7.6 2.8 4.9 83 1.2 WSW 19 20 10 11 1028.4 1028.4 5.4
23/12:00am 7.5 3.3 5.5 87 0.9 W 17 19 9 10 1028.4 1028.4 5.4
 
Date/Time
CST
Temp
°C
App
Temp
°C
Dew
Point
°C
Rel
Hum
%
Delta-T
°C
Wind Press
QNH
hPa
Press
MSL
hPa
Rain since
9am
mm
Dir  Spd
km/h
Gust
km/h
Spd
kts
Gust
kts
22/11:30pm 7.6 3.4 5.9 89 0.8 W 17 20 9 11 1028.2 1028.2 5.4
22/11:00pm 7.6 3.5 6.1 90 0.7 W 17 20 9 11 1028.1 1028.1 5.4
22/10:30pm 8.6 5.5 7.4 92 0.6 WSW 13 15 7 8 1028.2 1028.2 5.4
22/10:00pm 8.7 5.7 7.8 94 0.4 W 13 15 7 8 1028.0 1028.0 5.4
22/09:30pm 8.9 5.5 7.8 93 0.5 W 15 17 8 9 1027.8 1027.8 5.4
22/09:00pm 10.2 7.5 9.0 92 0.6 W 13 17 7 9 1027.6 1027.6 5.4
22/08:30pm 10.0 6.5 8.8 92 0.6 WSW 17 28 9 15 1027.4 1027.4 5.2
22/08:00pm 10.3 5.9 9.1 92 0.6 W 22 28 12 15 1027.0 1027.0 5.2
22/07:30pm 10.2 6.8 9.0 92 0.6 WNW 17 20 9 11 1026.6 1026.6 5.0
22/07:00pm 9.7 6.0 8.0 89 0.8 W 17 20 9 11 1026.2 1026.2 4.6
22/06:30pm 10.6 6.2 8.9 89 0.8 WSW 22 32 12 17 1025.8 1025.8 4.2
22/06:00pm 10.1 6.1 8.2 88 0.9 W 19 20 10 11 1025.4 1025.4 4.0
22/05:30pm 10.6 6.6 8.9 89 0.8 W 20 26 11 14 1025.1 1025.1 4.0
22/05:24pm 10.5 6.0 8.4 87 1.0 W 22 33 12 18 1025.0 1025.0 4.0
22/05:00pm 10.1 3.6 8.0 87 1.0 WSW 32 46 17 25 1024.8 1024.8 3.0
22/04:53pm 10.3 2.7 7.5 83 1.3 WSW 37 48 20 26 1024.9 1024.9 2.2
22/04:49pm 11.3 4.5 7.6 78 1.8 WSW 33 48 18 26 1024.9 1024.9 1.8
22/04:30pm 14.7 8.3 8.4 66 3.2 W 32 46 17 25 1024.3 1024.3 1.8
22/04:00pm 13.6 7.5 8.2 70 2.7 WNW 30 43 16 23 1024.1 1024.1 1.8
22/03:30pm 14.1 8.0 9.9 76 2.2 W 32 43 17 23 1024.0 1024.0 1.8
22/03:00pm 13.3 7.7 10.3 82 1.5 WNW 30 39 16 21 1024.0 1024.0 1.8
22/02:30pm 10.1 3.4 8.0 87 1.0 W 33 43 18 23 1024.5 1024.5 1.6
22/02:11pm 12.2 5.5 8.1 76 2.0 W 33 56 18 30 1024.3 1024.3 0.2
22/02:00pm 14.8 7.9 7.1 60 3.8 W 33 43 18 23 1024.0 1024.0 0.2
22/01:30pm 15.9 8.6 7.4 57 4.2 W 35 46 19 25 1023.8 1023.8 0.2
22/01:00pm 14.9 7.4 6.5 57 4.1 WNW 35 48 19 26 1024.0 1024.0 0.2
22/12:30pm 15.4 8.1 7.4 59 3.9 WNW 35 46 19 25 1024.4 1024.4 0.2
22/12:00pm 14.2 7.2 6.8 61 3.6 WNW 33 46 18 25 1024.5 1024.5 0.2
22/11:30am 13.4 8.3 9.1 75 2.2 W 26 35 14 19 1024.6 1024.6 0.2
22/11:20am 12.0 6.3 8.5 79 1.7 WNW 28 46 15 25 1024.8 1024.8 0.2
22/11:00am 13.3 6.6 7.3 67 2.9 WNW 32 48 17 26 1024.6 1024.6 0.0
22/10:30am 14.2 7.6 7.9 66 3.1 NW 32 39 17 21 1024.8 1024.8 0.0
22/10:00am 13.8 8.3 9.0 73 2.4 WNW 28 35 15 19 1024.7 1024.7 0.0
22/09:30am 13.1 8.1 9.4 78 1.9 NW 26 35 14 19 1024.9 1024.9 0.0
22/09:00am 12.2 7.8 8.9 80 1.6 NNW 22 28 12 15 1025.0 1025.0 0.8
22/08:30am 10.9 7.3 8.5 85 1.2 NNW 17 20 9 11 1025.0 1025.0 0.8
22/08:00am 9.0 5.5 7.3 89 0.8 NW 15 22 8 12 1024.8 1024.8 0.8
22/07:30am 8.0 5.5 6.6 91 0.6 NNW 9 15 5 8 1024.6 1024.6 0.8
22/07:00am 7.4 5.2 6.3 93 0.5 NNW 7 11 4 6 1024.4 1024.4 0.8
22/06:30am 7.1 3.3 6.0 93 0.5 NW 15 19 8 10 1024.2 1024.2 0.8
22/06:00am 6.3 2.8 5.4 94 0.4 NW 13 15 7 8 1024.0 1024.0 0.8
22/05:30am 6.1 2.5 5.2 94 0.4 NNW 13 17 7 9 1023.5 1023.5 0.8
22/05:00am 5.1 2.1 4.2 94 0.4 NW 9 13 5 7 1023.2 1023.2 0.8
22/04:30am 4.5 -0.1 3.6 94 0.4 NW 17 19 9 10 1023.0 1023.0 0.8
22/04:00am 4.7 1.3 3.8 94 0.4 NW 11 13 6 7 1022.7 1022.7 0.8
22/03:30am 6.0 2.0 5.1 94 0.4 WNW 15 17 8 9 1022.8 1022.8 0.8
22/03:00am 5.5 2.2 4.8 95 0.3 NNW 11 15 6 8 1023.1 1023.1 0.8
22/02:30am 5.7 2.9 5.0 95 0.3 NNW 9 13 5 7 1023.2 1023.2 0.8
22/02:00am 5.0 1.7 4.3 95 0.3 NNW 11 13 6 7 1023.3 1023.3 0.6
22/01:30am 4.4 1.3 3.5 94 0.4 NNW 9 11 5 6 1023.4 1023.4 0.6
22/01:00am 5.0 1.2 4.0 93 0.4 NNW 13 17 7 9 1023.5 1023.5 0.6
22/12:30am 5.1 1.7 4.1 93 0.4 NW 11 15 6 8 1023.6 1023.6 0.6
22/12:00am 5.4 2.5 4.5 94 0.4 NW 9 9 5 5 1023.7 1023.7 0.6
 
Date/Time
CST
Temp
°C
App
Temp
°C
Dew
Point
°C
Rel
Hum
%
Delta-T
°C
Wind Press
QNH
hPa
Press
MSL
hPa
Rain since
9am
mm
Dir  Spd
km/h
Gust
km/h
Spd
kts
Gust
kts
21/11:30pm 5.3 2.3 4.3 93 0.4 NNW 9 11 5 6 1023.7 1023.7 0.6
21/11:00pm 5.8 2.9 4.8 93 0.4 NNW 9 13 5 7 1023.8 1023.8 0.6
21/10:30pm 6.5 3.3 5.0 90 0.7 NNW 11 15 6 8 1023.9 1023.9 0.6
21/10:00pm 7.9 3.8 6.2 89 0.8 WNW 17 20 9 11 1024.0 1024.0 0.6
21/09:30pm 6.8 3.4 5.7 93 0.5 NW 13 15 7 8 1023.9 1023.9 0.6
21/09:00pm 7.4 4.1 6.3 93 0.5 NW 13 17 7 9 1023.7 1023.7 0.6
21/08:30pm 6.2 3.3 4.7 90 0.6 NW 9 13 5 7 1023.7 1023.7 0.6
21/08:00pm 7.0 3.4 5.2 88 0.8 NW 13 15 7 8 1023.3 1023.3 0.6
21/07:30pm 7.6 4.3 6.2 91 0.6 WNW 13 17 7 9 1023.0 1023.0 0.6
21/07:00pm 7.2 4.0 5.0 86 1.0 W 11 15 6 8 1022.7 1022.7 0.6
21/06:30pm 8.4 5.2 5.0 79 1.5 WSW 11 13 6 7 1022.5 1022.5 0.6
21/06:00pm 10.3 6.0 5.3 71 2.3 WSW 17 26 9 14 1022.4 1022.4 0.6
21/05:30pm 11.2 5.5 4.7 64 2.9 WSW 24 33 13 18 1022.0 1022.0 0.6
21/05:00pm 12.5 6.7 4.5 58 3.6 WSW 24 30 13 16 1021.5 1021.5 0.6
21/04:30pm 12.7 6.6 4.7 58 3.7 WSW 26 32 14 17 1021.2 1021.2 0.6
21/04:00pm 13.5 6.8 3.8 52 4.4 WSW 28 35 15 19 1021.0 1021.0 0.6
21/03:30pm 13.8 6.2 2.7 47 4.9 WSW 32 43 17 23 1020.8 1020.8 0.6
21/03:00pm 14.1 6.6 3.3 48 4.8 WSW 32 41 17 22 1020.6 1020.6 0.6
21/02:30pm 14.2 6.7 3.4 48 4.9 WSW 32 43 17 23 1020.4 1020.4 0.6
21/02:00pm 14.6 7.7 4.6 51 4.6 W 30 41 16 22 1020.3 1020.3 0.6
21/01:30pm 14.9 8.5 5.1 52 4.6 WSW 28 39 15 21 1020.4 1020.4 0.6
21/01:00pm 14.3 7.2 5.4 55 4.2 WSW 32 39 17 21 1020.2 1020.2 0.6
21/12:30pm 13.2 7.2 5.4 59 3.6 WSW 26 39 14 21 1020.2 1020.2 0.6
21/12:00pm 12.4 6.9 5.8 64 3.1 WSW 24 35 13 19 1020.2 1020.2 0.6
21/11:30am 11.7 5.8 6.0 68 2.7 SW 26 33 14 18 1020.1 1020.1 0.6
21/11:00am 10.1 4.2 7.5 84 1.2 SW 28 37 15 20 1020.2 1020.2 0.6
21/10:30am 12.9 6.7 6.0 63 3.2 WSW 28 39 15 21 1019.7 1019.7 0.2
21/10:00am 11.9 8.9 7.8 76 2.0 WSW 13 22 7 12 1019.8 1019.8 0.2
21/09:30am 12.0 7.1 5.2 63 3.1 SW 20 32 11 17 1019.5 1019.5 0.0
21/09:00am 12.8 8.4 6.6 66 3.0 WSW 19 24 10 13 1019.2 1019.2 3.0
21/08:30am 11.6 6.6 6.5 71 2.4 WSW 22 30 12 16 1018.8 1018.8 3.0
21/08:00am 10.8 6.5 7.1 78 1.8 WSW 19 26 10 14 1018.4 1018.4 3.0
21/07:30am 9.9 6.1 7.7 86 1.1 WSW 17 24 9 13 1017.9 1017.9 3.0
21/07:00am 8.1 4.1 6.7 91 0.6 W 17 20 9 11 1017.7 1017.7 3.0
21/06:30am 7.7 3.7 6.5 92 0.5 WSW 17 22 9 12 1017.3 1017.3 3.0
21/06:00am 8.5 4.2 6.8 89 0.8 SW 19 24 10 13 1016.9 1016.9 3.0
21/05:45am 8.3 3.8 7.1 92 0.6 WSW 20 28 11 15 1016.7 1016.7 3.0
21/05:30am 8.0 2.7 6.6 91 0.6 WSW 24 41 13 22 1016.7 1016.7 2.6
21/05:29am 8.0 2.7 6.6 91 0.6 WSW 24 41 13 22 1016.7 1016.7 2.6
21/05:00am 8.0 4.0 6.5 90 0.7 SW 17 22 9 12 1016.1 1016.1 2.0
21/04:30am 7.9 4.2 6.5 91 0.6 WSW 15 20 8 11 1015.6 1015.6 2.0
21/04:00am 8.5 4.2 7.0 90 0.7 SW 19 33 10 18 1015.3 1015.3 2.0
21/03:30am 8.8 4.1 7.7 93 0.5 SW 22 33 12 18 1015.2 1015.2 2.0
21/03:00am 8.2 4.3 7.1 93 0.5 WSW 17 22 9 12 1014.7 1014.7 1.6
21/02:30am 7.3 4.7 6.2 93 0.5 W 9 13 5 7 1014.6 1014.6 1.6
21/02:00am 7.4 4.5 6.3 93 0.5 W 11 15 6 8 1014.7 1014.7 1.6
21/01:30am 7.4 3.7 6.3 93 0.5 WNW 15 17 8 9 1014.7 1014.7 1.6
21/01:00am 8.3 4.8 7.1 92 0.6 W 15 19 8 10 1014.6 1014.6 1.6
21/12:30am 7.7 4.8 6.5 92 0.5 WNW 11 15 6 8 1014.7 1014.7 1.6
21/12:00am 9.1 5.7 7.7 91 0.7 WSW 15 20 8 11 1014.9 1014.9 1.6
 
Date/Time
CST
Temp
°C
App
Temp
°C
Dew
Point
°C
Rel
Hum
%
Delta-T
°C
Wind Press
QNH
hPa
Press
MSL
hPa
Rain since
9am
mm
Dir  Spd
km/h
Gust
km/h
Spd
kts
Gust
kts
20/11:30pm 8.6 4.8 7.4 92 0.6 WNW 17 24 9 13 1014.8 1014.8 1.6
20/11:00pm 8.3 4.4 6.9 91 0.6 WNW 17 20 9 11 1014.8 1014.8 1.6
20/10:30pm 7.2 2.7 6.0 92 0.5 NW 19 20 10 11 1014.9 1014.9 1.6
20/10:00pm 7.2 3.8 6.0 92 0.5 NW 13 17 7 9 1015.0 1015.0 1.6
20/09:30pm 8.3 5.1 6.8 90 0.7 WNW 13 15 7 8 1015.1 1015.1 1.6
20/09:00pm 9.3 4.5 7.4 88 0.9 W 22 35 12 19 1015.2 1015.2 1.6
20/08:30pm 8.0 3.7 6.8 92 0.6 NW 19 20 10 11 1014.7 1014.7 1.2
20/08:00pm 7.8 3.8 6.7 93 0.5 NW 17 19 9 10 1014.8 1014.8 1.2
20/07:30pm 8.5 5.0 7.1 91 0.7 WNW 15 17 8 9 1014.6 1014.6 1.2
20/07:00pm 9.6 7.4 7.9 89 0.8 WNW 9 11 5 6 1014.1 1014.1 1.2
20/06:30pm 10.7 8.3 8.6 87 1.0 WSW 11 15 6 8 1014.2 1014.2 1.2
20/06:00pm 11.3 8.8 9.7 90 0.8 NW 13 15 7 8 1014.1 1014.1 1.2
20/05:30pm 11.8 10.5 9.9 88 1.0 NW 7 9 4 5 1014.0 1014.0 1.2
20/05:00pm 11.9 10.5 9.6 86 1.2 W 7 11 4 6 1013.6 1013.6 1.2
20/04:30pm 12.0 9.8 9.4 84 1.3 WNW 11 13 6 7 1013.4 1013.4 1.2
20/04:00pm 11.8 8.7 8.8 82 1.5 W 15 20 8 11 1013.1 1013.1 1.2
20/03:30pm 12.5 10.7 10.7 89 0.9 WSW 11 19 6 10 1013.1 1013.1 1.2
20/03:00pm 12.0 10.5 10.4 90 0.8 WSW 9 11 5 6 1012.8 1012.8 1.2

Other formats

Comma delimited format used in spreadsheet applications
http://www.bom.gov.au/fwo/IDS60801/IDS60801.95661.axf

JavaScript Object Notation format (JSON) in row-major order
http://www.bom.gov.au/fwo/IDS60801/IDS60801.95661.json

Data quality

Most of these data are generated automatically and are frequently updated. Quality checks on data are not normally performed. It is possible for incorrect values to appear. Refer to information at About Latest Weather Observations and please check the disclaimer before using these data.